URKK

Krasnodar International Airport

Krasnodar, Russian Federation
TAF URKK 211956Z 2121/2221 23003G08MPS 9999 SCT030CB TEMPO 2206/2218 VRB08G17MPS 1000 TSRA SCT005 BKN020CB
Issued Valid From Valid To
Jul-21 @ 19:56 UTC
(3 hours ago)
Jul-21 @ 21:00 UTC
(2 hours ago)
Jul-22 @ 21:00 UTC
(in 22 hours)
Jul-21 @ 21:00 to Jul-22 @ 21:00
TAF URKK 211956Z 2121/2221 23003G08MPS 9999 SCT030CB
Wind Visibility Clouds
230° at 6 knots
 Gusting to 16 knots
10,000+ meters
  • Scattered at 3,000' AGL
Temporary Jul-22 @ 06:00 to Jul-22 @ 18:00
TEMPO 2206/2218 VRB08G17MPS 1000 TSRA SCT005 BKN020CB
Wind Visibility Clouds Conditions
Variable at 16 knots
 Gusting to 33 knots
998 meters
  • Scattered at 500' AGL
  • Broken at 2,000' AGL
  • Thunderstorm
  • Rain
TAF URKK 211956Z 2121/2221 23003G08MPS 9999 SCT030CB TEMPO 2206/2218 VRB08G17MPS 1000 TSRA SCT005 BKN020CB
Issued Jul-21 @ 19:56 UTC
(3 hours ago)
Valid From Jul-21 @ 21:00 UTC
(2 hours ago)
Valid To Jul-22 @ 21:00 UTC
(in 22 hours)
Jul-21 @ 21:00 - Jul-22 @ 21:00
Wind Visibility
230° at 6 knots
 Gusting to 16 knots
10,000+ meters
Clouds
  • Scattered at 3,000' AGL
Temporary Jul-22 @ 06:00 - Jul-22 @ 18:00
Wind Visibility
Variable at 16 knots
 Gusting to 33 knots
998 meters
Clouds
  • Scattered at 500' AGL
  • Broken at 2,000' AGL
Conditions
  • Thunderstorm
  • Rain